Time;durP1;ratioP1;P1;durP2;ratioP2;P2;SDS_P1;SDS_P2;PMS_P1;PMS_P2;Temp;Humidity;BMP_temperature;BMP_pressure;BME280_temperature;BME280_humidity;BME280_pressure;Samples;Min_cycle;Max_cycle;Signal;HPM_P1;HPM_P2
2023/03/01 00:00:50;;;;;;;;;23.50;22.75;;;;;3.58;58.83;102261.91;5101478;27;47853;-77
2023/03/01 00:03:15;;;;;;;;;24.00;22.50;;;;;3.62;59.40;102268.69;5102421;27;51247;-77
2023/03/01 00:05:45;;;;;;;;;23.75;22.25;;;;;3.62;59.60;102270.50;5101219;27;51189;-78
2023/03/01 00:08:11;;;;;;;;;24.75;24.75;;;;;3.65;59.49;102279.03;5100924;27;45370;-77
2023/03/01 00:10:36;;;;;;;;;27.25;24.00;;;;;3.59;58.82;102268.03;5101423;27;45878;-78
2023/03/01 00:13:02;;;;;;;;;26.50;21.25;;;;;3.61;59.54;102269.63;5102483;27;45352;-77
2023/03/01 00:15:27;;;;;;;;;25.00;22.75;;;;;3.59;59.50;102270.66;5102887;27;45397;-77
2023/03/01 00:17:52;;;;;;;;;27.00;25.25;;;;;3.52;59.43;102267.53;5102676;27;45294;-77
2023/03/01 00:20:18;;;;;;;;;22.75;22.00;;;;;3.41;59.85;102266.38;5102427;27;45263;-78
2023/03/01 00:22:43;;;;;;;;;20.50;19.25;;;;;3.50;59.49;102279.94;5102436;27;48400;-78
2023/03/01 00:25:09;;;;;;;;;24.00;21.50;;;;;3.44;60.54;102277.66;5102597;27;49557;-78
2023/03/01 00:27:34;;;;;;;;;24.50;21.75;;;;;3.40;59.89;102269.97;5115249;27;45479;-78
2023/03/01 00:29:59;;;;;;;;;22.25;20.25;;;;;3.39;60.05;102275.31;5102481;27;45471;-77
2023/03/01 00:32:25;;;;;;;;;22.50;20.50;;;;;3.31;59.94;102259.97;5101725;27;57776;-78
2023/03/01 00:34:55;;;;;;;;;25.00;21.25;;;;;3.31;60.93;102262.59;5102532;27;45273;-77
2023/03/01 00:37:21;;;;;;;;;22.75;22.75;;;;;3.22;60.27;102260.50;5100788;27;45325;-78
2023/03/01 00:39:48;;;;;;;;;26.00;26.00;;;;;3.25;60.78;102268.19;5102295;27;45490;-77
2023/03/01 00:42:13;;;;;;;;;21.75;20.75;;;;;3.20;61.25;102268.47;5100695;27;48537;-77
2023/03/01 00:44:38;;;;;;;;;17.25;17.25;;;;;3.19;61.72;102264.16;5102272;27;45347;-77
2023/03/01 00:47:04;;;;;;;;;26.75;24.00;;;;;3.21;62.16;102270.19;5100693;27;49964;-78
2023/03/01 00:49:29;;;;;;;;;17.50;17.50;;;;;3.19;61.91;102268.56;5102316;27;45292;-77
2023/03/01 00:51:54;;;;;;;;;21.00;21.00;;;;;3.17;62.09;102266.00;5101619;27;45609;-77
2023/03/01 00:54:20;;;;;;;;;24.25;23.50;;;;;3.22;62.42;102281.50;5100458;27;46070;-77
2023/03/01 00:56:45;;;;;;;;;25.50;24.75;;;;;3.12;62.77;102275.94;5100413;27;48301;-77
2023/03/01 00:59:10;;;;;;;;;30.25;25.00;;;;;3.18;62.78;102280.00;5100591;27;53313;-77
2023/03/01 01:01:36;;;;;;;;;22.75;20.50;;;;;3.08;61.93;102283.16;5101564;27;51967;-77
2023/03/01 01:04:04;;;;;;;;;27.00;24.00;;;;;3.10;62.64;102283.06;5102194;27;45260;-77
2023/03/01 01:06:33;;;;;;;;;26.00;21.00;;;;;3.09;62.59;102279.59;5100441;27;45296;-77
2023/03/01 01:08:58;;;;;;;;;25.75;23.50;;;;;3.03;63.17;102266.81;5101815;27;45307;-77
2023/03/01 01:11:26;;;;;;;;;22.75;20.50;;;;;3.08;63.34;102277.06;5101628;27;45337;-77
2023/03/01 01:13:51;;;;;;;;;26.50;26.25;;;;;3.06;63.71;102276.28;5101923;27;45420;-77
2023/03/01 01:16:19;;;;;;;;;24.00;20.50;;;;;3.05;63.37;102277.22;5100512;27;45425;-76
2023/03/01 01:18:45;;;;;;;;;23.75;22.50;;;;;3.02;64.05;102267.72;5101898;27;45482;-77
2023/03/01 01:21:14;;;;;;;;;20.50;20.50;;;;;2.99;63.61;102268.75;5101065;27;46405;-77
2023/03/01 01:23:40;;;;;;;;;25.00;24.25;;;;;3.01;64.34;102261.66;5111046;27;45376;-77
2023/03/01 01:26:19;;;;;;;;;24.00;22.25;;;;;2.93;64.66;102249.88;5099545;27;45369;-77
2023/03/01 01:28:45;;;;;;;;;21.75;19.25;;;;;2.99;65.30;102257.41;5093757;27;45311;-77
2023/03/01 01:31:11;;;;;;;;;21.25;20.00;;;;;2.95;64.87;102251.47;5101256;27;45392;-77
2023/03/01 01:33:37;;;;;;;;;20.00;20.00;;;;;2.96;65.85;102255.78;5101667;27;45310;-77
2023/03/01 01:36:03;;;;;;;;;17.75;15.75;;;;;2.92;65.94;102251.66;5099873;27;45439;-77
2023/03/01 01:38:29;;;;;;;;;20.00;20.00;;;;;2.93;65.78;102260.38;5101233;27;45467;-78
2023/03/01 01:40:55;;;;;;;;;22.50;19.50;;;;;2.84;65.95;102238.94;5101224;27;45854;-77
2023/03/01 01:43:24;;;;;;;;;25.50;19.75;;;;;2.85;65.61;102247.69;5101521;27;46452;-78
2023/03/01 01:45:50;;;;;;;;;24.75;23.75;;;;;2.85;65.43;102238.03;5100080;27;45274;-77
2023/03/01 01:48:21;;;;;;;;;22.00;21.25;;;;;2.79;66.30;102222.63;5101221;27;45396;-77
2023/03/01 01:50:55;;;;;;;;;26.25;25.50;;;;;2.79;65.93;102225.25;5100678;27;45392;-78
2023/03/01 01:53:20;;;;;;;;;25.50;24.25;;;;;2.69;66.64;102209.13;5101081;27;45402;-77
2023/03/01 01:55:51;;;;;;;;;23.00;22.00;;;;;2.77;66.53;102221.84;5101308;27;45218;-78
2023/03/01 01:58:20;;;;;;;;;25.25;24.00;;;;;2.75;66.53;102227.19;5100927;27;45490;-77
2023/03/01 02:00:47;;;;;;;;;27.50;25.75;;;;;2.67;66.42;102221.53;5100902;27;45428;-77
2023/03/01 02:03:18;;;;;;;;;25.75;23.25;;;;;2.65;66.75;102215.50;5099495;27;46410;-77
2023/03/01 02:05:53;;;;;;;;;22.00;21.75;;;;;2.72;66.76;102226.53;5099981;27;45344;-77
2023/03/01 02:08:21;;;;;;;;;24.50;23.25;;;;;2.67;66.99;102228.53;5099102;27;46462;-77
2023/03/01 02:10:49;;;;;;;;;28.00;25.25;;;;;2.65;66.68;102220.75;5089288;27;45342;-77
2023/03/01 02:13:14;;;;;;;;;26.50;24.50;;;;;2.58;66.85;102216.78;5098933;27;45437;-77
2023/03/01 02:15:41;;;;;;;;;29.75;25.00;;;;;2.64;67.28;102224.31;5099390;27;45360;-77
2023/03/01 02:18:09;;;;;;;;;23.50;23.25;;;;;2.63;67.03;102222.59;5100660;27;45384;-78
2023/03/01 02:20:37;;;;;;;;;24.25;20.00;;;;;2.65;67.12;102226.84;5098787;27;48548;-77
2023/03/01 02:23:03;;;;;;;;;23.75;23.00;;;;;2.58;67.42;102207.13;5100561;27;45259;-77
2023/03/01 02:25:49;;;;;;;;;23.00;20.75;;;;;2.64;68.13;102219.88;5099174;27;45247;-78
2023/03/01 02:28:15;;;;;;;;;25.75;22.50;;;;;2.64;68.31;102212.00;5088655;27;45349;-77
2023/03/01 02:31:41;;;;;;;;;23.50;23.00;;;;;2.61;67.84;102206.09;5100161;27;45747;-77
2023/03/01 02:33:28;;;;;;;;;23.25;20.25;;;;;2.52;67.61;102200.41;5100466;27;45353;-77
2023/03/01 02:35:56;;;;;;;;;20.75;20.75;;;;;2.50;68.14;102198.81;5098964;27;45459;-77
2023/03/01 02:38:23;;;;;;;;;28.75;26.50;;;;;2.49;68.29;102197.13;5100587;27;45389;-77
2023/03/01 02:40:50;;;;;;;;;28.00;25.75;;;;;2.53;67.91;102209.16;5100079;27;45366;-77
2023/03/01 02:43:16;;;;;;;;;22.00;20.50;;;;;2.57;68.56;102213.28;5099186;27;45320;-77
2023/03/01 02:45:49;;;;;;;;;30.25;26.00;;;;;2.58;67.93;102207.13;5100188;27;45407;-77
2023/03/01 02:48:15;;;;;;;;;27.50;24.50;;;;;2.53;68.17;102196.03;5100048;27;45422;-77
2023/03/01 02:50:52;;;;;;;;;23.00;20.50;;;;;2.55;68.18;102204.69;5099945;27;45398;-77
2023/03/01 02:53:49;;;;;;;;;20.25;20.25;;;;;2.56;68.32;102197.63;5099095;27;45444;-77
2023/03/01 02:56:15;;;;;;;;;19.50;19.50;;;;;2.55;68.03;102199.44;5099039;27;45400;-77
2023/03/01 02:58:44;;;;;;;;;27.50;25.50;;;;;2.45;68.21;102172.00;5095431;27;46229;-77
2023/03/01 03:01:10;;;;;;;;;27.25;22.50;;;;;2.49;69.06;102179.59;5091918;27;48503;-77
2023/03/01 03:03:35;;;;;;;;;24.00;22.25;;;;;2.44;69.90;102171.13;5100038;27;45368;-77
2023/03/01 03:06:01;;;;;;;;;28.75;26.00;;;;;2.46;69.98;102177.16;5099317;27;53889;-76
2023/03/01 03:08:26;;;;;;;;;23.75;21.75;;;;;2.37;70.32;102165.38;5099682;27;55953;-77
2023/03/01 03:10:51;;;;;;;;;21.75;20.50;;;;;2.45;70.15;102169.38;5098769;27;47127;-77
2023/03/01 03:13:17;;;;;;;;;29.75;26.00;;;;;2.46;70.27;102165.81;5094756;27;56494;-76
2023/03/01 03:15:43;;;;;;;;;25.50;25.25;;;;;2.44;70.47;102170.28;5092731;27;45735;-76
2023/03/01 03:18:12;;;;;;;;;27.75;24.50;;;;;2.42;70.52;102164.28;5099817;27;45462;-76
2023/03/01 03:20:39;;;;;;;;;26.00;22.75;;;;;2.37;71.33;102161.91;5099130;27;45260;-77
2023/03/01 03:23:05;;;;;;;;;25.50;22.50;;;;;2.32;70.28;102161.31;5098559;27;45277;-77
2023/03/01 03:25:30;;;;;;;;;25.00;23.75;;;;;2.34;70.65;102168.16;5095272;27;45315;-77
2023/03/01 03:27:57;;;;;;;;;27.50;25.75;;;;;2.36;70.62;102171.56;5098285;27;53596;-77
2023/03/01 03:30:26;;;;;;;;;26.25;24.00;;;;;2.36;71.03;102179.44;5099380;27;45346;-77
2023/03/01 03:32:52;;;;;;;;;20.75;11.00;;;;;2.35;70.93;102179.50;5099462;27;45228;-76
2023/03/01 03:35:24;;;;;;;;;30.00;24.00;;;;;2.35;71.59;102172.50;5098104;27;45718;-77
2023/03/01 03:38:03;;;;;;;;;24.50;21.25;;;;;2.31;71.26;102159.63;5099615;27;45491;-77
2023/03/01 03:40:32;;;;;;;;;29.50;25.25;;;;;2.23;71.34;102141.69;5097814;27;48173;-77
2023/03/01 03:42:57;;;;;;;;;26.25;24.75;;;;;2.26;73.13;102157.25;5099415;27;45368;-76
2023/03/01 03:45:23;;;;;;;;;27.25;22.50;;;;;2.24;71.99;102159.97;5099565;27;45341;-76
2023/03/01 03:47:48;;;;;;;;;24.25;24.25;;;;;2.20;72.32;102147.94;5099949;27;45406;-76
2023/03/01 03:50:16;;;;;;;;;21.50;19.50;;;;;2.31;72.01;102164.88;5097472;27;47244;-76
2023/03/01 03:52:41;;;;;;;;;24.25;22.25;;;;;2.30;72.35;102165.81;5097953;27;46255;-77
2023/03/01 03:55:09;;;;;;;;;24.50;24.50;;;;;2.20;73.04;102150.56;5099370;27;45492;-76
2023/03/01 03:57:34;;;;;;;;;26.50;25.75;;;;;2.02;72.58;102126.19;5099552;27;45426;-77
2023/03/01 04:00:00;;;;;;;;;25.50;23.00;;;;;2.19;72.79;102150.66;5098787;27;45474;-77
2023/03/01 04:02:26;;;;;;;;;23.50;20.25;;;;;2.22;72.29;102161.81;5099582;27;45347;-76
2023/03/01 04:04:51;;;;;;;;;27.25;26.25;;;;;2.27;72.91;102172.91;5097835;27;45363;-76
2023/03/01 04:07:17;;;;;;;;;25.50;23.25;;;;;2.25;72.28;102169.50;5099266;27;45404;-77
2023/03/01 04:09:43;;;;;;;;;27.75;26.50;;;;;2.25;72.61;102166.06;5099134;27;45501;-77
2023/03/01 04:12:09;;;;;;;;;23.50;22.50;;;;;2.24;72.35;102172.22;5099532;27;45317;-76
2023/03/01 04:14:35;;;;;;;;;30.00;25.75;;;;;2.18;72.86;102154.22;5098003;27;45334;-77
2023/03/01 04:17:00;;;;;;;;;29.75;28.25;;;;;2.22;72.88;102169.69;5097683;27;46067;-76
2023/03/01 04:19:26;;;;;;;;;24.25;23.25;;;;;2.12;73.06;102156.22;5098831;27;46027;-77
2023/03/01 04:21:52;;;;;;;;;29.50;29.25;;;;;2.18;73.68;102168.16;5099003;27;45305;-77
2023/03/01 04:24:17;;;;;;;;;27.75;26.50;;;;;2.00;72.99;102141.16;5099106;27;45230;-77
2023/03/01 04:26:43;;;;;;;;;26.50;24.25;;;;;2.03;73.46;102148.84;5098937;27;50069;-77
2023/03/01 04:29:08;;;;;;;;;30.50;29.00;;;;;2.12;73.68;102163.25;5101234;27;45615;-77
2023/03/01 04:31:33;;;;;;;;;30.00;28.00;;;;;2.14;73.82;102171.88;5101067;27;51170;-77
2023/03/01 04:33:59;;;;;;;;;25.75;24.50;;;;;2.10;73.99;102160.69;5101163;27;46518;-77
2023/03/01 04:36:27;;;;;;;;;27.25;22.50;;;;;2.09;74.15;102159.03;5102018;27;45412;-77
2023/03/01 04:38:53;;;;;;;;;33.75;32.25;;;;;2.05;74.74;102151.41;5100686;27;48002;-77
2023/03/01 04:41:22;;;;;;;;;22.75;21.50;;;;;2.09;75.19;102155.53;5100891;27;45322;-77
2023/03/01 04:43:48;;;;;;;;;26.50;24.00;;;;;2.03;73.96;102142.78;5102411;27;45180;-76
2023/03/01 04:46:17;;;;;;;;;26.00;24.00;;;;;2.08;74.67;102143.38;5102440;27;45214;-77
2023/03/01 04:48:44;;;;;;;;;31.50;24.25;;;;;2.01;74.73;102132.38;5100602;27;47336;-76
2023/03/01 04:51:13;;;;;;;;;28.50;27.50;;;;;2.06;74.22;102132.97;5114435;27;45348;-77
2023/03/01 04:53:39;;;;;;;;;30.75;27.00;;;;;2.05;74.65;102131.28;5099901;27;45270;-76
2023/03/01 04:56:05;;;;;;;;;33.75;30.25;;;;;1.95;74.77;102112.56;5102242;27;45538;-77
2023/03/01 04:58:31;;;;;;;;;26.00;26.00;;;;;2.07;75.17;102136.44;5100223;27;47466;-77
2023/03/01 05:00:56;;;;;;;;;32.75;31.25;;;;;2.07;75.99;102134.66;5100740;27;45389;-77
2023/03/01 05:03:22;;;;;;;;;32.75;29.75;;;;;2.03;75.63;102135.75;5100711;27;45417;-76
2023/03/01 05:05:51;;;;;;;;;28.75;25.00;;;;;2.05;75.32;102139.13;5096912;27;45887;-77
2023/03/01 05:08:20;;;;;;;;;29.75;29.25;;;;;2.05;75.24;102147.00;5116205;27;47141;-77
2023/03/01 05:10:49;;;;;;;;;35.50;33.50;;;;;1.96;75.10;102129.13;5100400;27;45310;-76
2023/03/01 05:13:20;;;;;;;;;33.25;30.50;;;;;1.96;75.78;102137.00;5101757;27;45298;-77
2023/03/01 05:15:46;;;;;;;;;34.25;32.00;;;;;1.90;76.13;102125.09;5099943;27;46073;-77
2023/03/01 05:18:11;;;;;;;;;51.50;42.25;;;;;1.92;76.57;102133.72;5101725;27;46321;-77
2023/03/01 05:20:37;;;;;;;;;39.00;32.25;;;;;1.93;77.45;102145.03;5101181;27;45349;-76
2023/03/01 05:23:05;;;;;;;;;40.25;32.50;;;;;1.86;77.12;102123.56;5102093;27;45406;-77
2023/03/01 05:25:33;;;;;;;;;58.75;46.00;;;;;1.92;76.69;102136.34;5101539;27;45227;-77
2023/03/01 05:28:04;;;;;;;;;58.75;47.25;;;;;1.86;76.77;102118.31;5101773;27;46501;-77
2023/03/01 05:30:32;;;;;;;;;71.75;58.00;;;;;1.88;77.67;102122.53;5099881;27;45571;-76
2023/03/01 05:32:58;;;;;;;;;69.00;53.75;;;;;1.87;77.12;102117.38;5101922;27;45291;-77
2023/03/01 05:35:24;;;;;;;;;56.75;47.00;;;;;1.92;76.78;102125.00;5099765;27;46005;-77
2023/03/01 05:37:50;;;;;;;;;31.25;30.75;;;;;1.88;77.34;102108.56;5101519;27;45455;-77
2023/03/01 05:40:18;;;;;;;;;27.25;25.75;;;;;1.91;77.43;102113.66;5100145;27;45535;-77
2023/03/01 05:42:49;;;;;;;;;36.00;33.25;;;;;1.88;77.67;102104.19;5100348;27;45305;-77
2023/03/01 05:45:15;;;;;;;;;45.25;41.75;;;;;1.86;78.81;102106.03;5099419;27;45338;-76
2023/03/01 05:47:43;;;;;;;;;26.50;25.75;;;;;1.87;78.57;102114.75;5089911;27;45318;-77
2023/03/01 05:50:13;;;;;;;;;39.50;35.25;;;;;1.80;79.01;102098.53;5100822;27;45483;-77
2023/03/01 05:52:38;;;;;;;;;43.00;39.25;;;;;1.84;79.41;102107.91;5101575;27;45537;-77
2023/03/01 05:55:04;;;;;;;;;43.25;39.25;;;;;1.83;78.97;102103.56;5099609;27;46001;-76
2023/03/01 05:57:29;;;;;;;;;31.25;29.50;;;;;1.84;78.99;102107.91;5100099;27;48166;-77
2023/03/01 05:59:55;;;;;;;;;76.00;58.25;;;;;1.80;78.81;102101.16;5101086;27;51650;-76
2023/03/01 06:02:20;;;;;;;;;32.75;31.50;;;;;1.83;79.24;102108.00;5101875;27;45343;-77
2023/03/01 06:04:45;;;;;;;;;37.50;33.00;;;;;1.79;79.06;102109.91;5100710;27;48803;-78
2023/03/01 06:07:11;;;;;;;;;37.75;32.75;;;;;1.71;78.76;102085.91;5100840;27;46579;-77
2023/03/01 06:09:36;;;;;;;;;32.75;31.75;;;;;1.86;78.44;102107.81;5100051;27;45448;-78
2023/03/01 06:12:01;;;;;;;;;37.75;36.00;;;;;1.81;79.17;102105.44;5091642;27;45559;-76
2023/03/01 06:14:27;;;;;;;;;66.75;52.00;;;;;1.74;78.66;102088.38;5100792;27;45337;-77
2023/03/01 06:16:52;;;;;;;;;37.75;34.00;;;;;1.75;79.21;102090.03;5098422;27;56218;-76
2023/03/01 06:19:17;;;;;;;;;35.50;34.25;;;;;1.70;80.09;102081.56;5097845;27;52400;-77
2023/03/01 06:21:42;;;;;;;;;38.25;35.00;;;;;1.73;79.34;102092.75;5100259;27;45360;-76
2023/03/01 06:24:08;;;;;;;;;32.50;29.25;;;;;1.71;79.57;102088.53;5098207;27;54162;-78
2023/03/01 06:26:33;;;;;;;;;29.75;28.00;;;;;1.71;79.11;102084.09;5089102;27;46145;-79
2023/03/01 06:28:58;;;;;;;;;35.25;33.75;;;;;1.68;79.76;102096.56;5100642;27;50455;-77
2023/03/01 06:31:24;;;;;;;;;29.00;26.25;;;;;1.61;79.65;102094.25;5099259;27;45382;-77
2023/03/01 06:33:49;;;;;;;;;40.00;35.00;;;;;1.58;79.64;102090.94;5100413;27;45491;-77
2023/03/01 06:36:18;;;;;;;;;38.50;38.50;;;;;1.56;79.58;102083.16;5100975;27;59141;-76
2023/03/01 06:38:43;;;;;;;;;40.25;35.75;;;;;1.40;79.78;102058.72;5099066;27;46089;-80
2023/03/01 06:41:09;;;;;;;;;39.75;35.25;;;;;1.62;80.16;102095.94;5099319;27;45746;-78
2023/03/01 06:43:34;;;;;;;;;45.75;40.50;;;;;1.63;80.18;102094.19;5101892;27;45426;-78
2023/03/01 06:46:00;;;;;;;;;42.50;39.00;;;;;1.57;79.93;102084.88;5104455;27;46058;-77
2023/03/01 06:48:25;;;;;;;;;39.75;35.25;;;;;1.61;79.78;102080.28;5098532;27;45545;-79
2023/03/01 06:50:51;;;;;;;;;39.25;37.75;;;;;1.47;79.65;102070.56;5102405;27;45582;-78
2023/03/01 06:53:16;;;;;;;;;40.00;38.00;;;;;1.40;79.86;102048.25;5101689;27;45502;-78
2023/03/01 06:55:41;;;;;;;;;59.75;50.25;;;;;1.53;79.80;102078.09;5099852;27;52911;-78
2023/03/01 06:58:06;;;;;;;;;59.50;46.50;;;;;1.46;80.33;102069.72;5097789;27;46694;-80
2023/03/01 07:00:32;;;;;;;;;56.50;44.00;;;;;1.60;80.51;102089.94;5103426;27;45309;-78
2023/03/01 07:02:59;;;;;;;;;67.75;54.00;;;;;1.55;80.94;102072.78;5089801;27;45333;-78
2023/03/01 07:05:24;;;;;;;;;75.50;60.75;;;;;1.60;80.76;102082.09;5114611;27;47360;-78
2023/03/01 07:07:49;;;;;;;;;70.50;58.50;;;;;1.61;81.41;102077.66;5099088;27;45743;-79
2023/03/01 07:10:15;;;;;;;;;58.50;49.50;;;;;1.54;80.91;102064.06;5098702;27;45323;-80
2023/03/01 07:12:41;;;;;;;;;53.00;43.25;;;;;1.69;80.86;102088.59;5097405;27;47124;-76
2023/03/01 07:15:09;;;;;;;;;54.00;46.25;;;;;1.72;81.41;102079.72;5095305;27;45361;-75
2023/03/01 07:17:34;;;;;;;;;51.25;41.25;;;;;1.72;82.42;102085.81;5092511;27;45415;-75
2023/03/01 07:19:59;;;;;;;;;49.75;42.25;;;;;1.70;82.07;102086.81;5099549;27;45290;-76
2023/03/01 07:22:25;;;;;;;;;51.00;45.75;;;;;1.67;82.30;102076.53;5097691;27;51816;-76
2023/03/01 07:24:50;;;;;;;;;51.25;45.75;;;;;1.76;81.98;102083.88;5096651;27;47098;-75
2023/03/01 07:27:15;;;;;;;;;51.75;43.75;;;;;1.75;81.61;102079.56;5090600;27;53360;-75
2023/03/01 07:29:41;;;;;;;;;54.75;46.25;;;;;1.70;82.13;102073.69;5098254;27;45432;-76
2023/03/01 07:32:06;;;;;;;;;48.75;42.50;;;;;1.72;82.26;102064.84;5096864;27;45525;-75
2023/03/01 07:34:32;;;;;;;;;64.50;52.75;;;;;1.84;82.01;102081.69;5097350;27;47489;-75
2023/03/01 07:36:57;;;;;;;;;50.25;42.50;;;;;1.89;82.73;102084.06;5097464;27;45379;-75
2023/03/01 07:39:22;;;;;;;;;64.50;53.00;;;;;1.89;82.05;102074.41;5097126;27;45385;-76
2023/03/01 07:41:48;;;;;;;;;65.25;47.00;;;;;1.98;82.69;102080.09;5098055;27;45557;-76
2023/03/01 07:44:15;;;;;;;;;45.50;41.50;;;;;1.99;83.24;102063.41;5094442;27;46958;-76
2023/03/01 07:46:40;;;;;;;;;47.00;42.25;;;;;1.98;83.53;102057.31;5090521;27;45386;-76
2023/03/01 07:49:05;;;;;;;;;61.75;51.75;;;;;2.03;83.28;102062.31;5097725;27;45261;-76
2023/03/01 07:51:31;;;;;;;;;66.75;51.25;;;;;2.07;83.53;102057.75;5098301;27;45292;-76
2023/03/01 07:53:56;;;;;;;;;51.50;43.00;;;;;2.16;83.56;102066.88;5089209;27;45891;-76
2023/03/01 07:56:21;;;;;;;;;54.50;45.25;;;;;2.20;83.09;102068.38;5094131;27;45440;-75
2023/03/01 07:58:47;;;;;;;;;47.50;43.00;;;;;2.29;83.46;102075.75;5080058;27;45238;-76
2023/03/01 08:01:15;;;;;;;;;59.25;43.00;;;;;2.34;82.97;102081.56;5078366;27;45473;-76
2023/03/01 08:03:41;;;;;;;;;75.50;58.75;;;;;2.37;82.76;102070.91;5084030;27;45383;-76
2023/03/01 08:06:09;;;;;;;;;57.75;46.25;;;;;2.47;82.78;102070.38;5097110;27;45488;-77
2023/03/01 08:08:35;;;;;;;;;54.50;43.00;;;;;2.49;82.67;102071.97;5101300;27;45320;-76
2023/03/01 08:11:03;;;;;;;;;60.00;50.00;;;;;2.59;82.43;102074.06;5101540;27;45361;-76
2023/03/01 08:13:28;;;;;;;;;84.00;60.50;;;;;2.67;82.25;102073.63;5101654;27;45398;-76
2023/03/01 08:15:54;;;;;;;;;47.75;42.00;;;;;2.72;81.81;102067.19;5101206;27;45494;-76
2023/03/01 08:18:20;;;;;;;;;60.75;47.50;;;;;2.79;81.26;102070.31;5102734;27;45718;-76
2023/03/01 08:20:46;;;;;;;;;57.75;45.25;;;;;2.76;81.71;102047.66;5100705;27;46052;-76
2023/03/01 08:23:12;;;;;;;;;196.00;191.25;;;;;2.93;81.27;102064.22;5103133;27;45474;-76
2023/03/01 08:25:38;;;;;;;;;69.00;55.75;;;;;3.02;81.46;102060.19;5099637;27;45728;-76
2023/03/01 08:28:05;;;;;;;;;50.50;43.00;;;;;2.95;79.73;102036.09;5100746;27;45299;-77
2023/03/01 08:30:30;;;;;;;;;53.75;45.25;;;;;3.07;79.42;102052.03;5100540;27;45275;-76
2023/03/01 08:32:55;;;;;;;;;44.50;41.75;;;;;3.15;80.08;102055.06;5111452;27;45240;-77
2023/03/01 08:35:21;;;;;;;;;91.75;72.00;;;;;3.14;80.46;102041.06;5100467;27;54980;-75
2023/03/01 08:37:47;;;;;;;;;58.25;46.25;;;;;3.27;80.22;102048.22;5102769;27;45309;-77
2023/03/01 08:40:13;;;;;;;;;52.00;43.00;;;;;3.31;79.58;102038.34;5102641;27;45227;-76
2023/03/01 08:42:40;;;;;;;;;52.75;44.25;;;;;3.37;80.18;102045.84;5102202;27;46002;-76
2023/03/01 08:45:06;;;;;;;;;50.75;42.75;;;;;3.35;78.91;102043.31;5102308;27;45254;-77
2023/03/01 08:47:33;;;;;;;;;53.75;45.75;;;;;3.38;77.77;102052.81;5102467;27;45355;-76
2023/03/01 08:49:59;;;;;;;;;42.25;39.25;;;;;3.35;78.27;102051.22;5100929;27;46975;-76
2023/03/01 08:52:24;;;;;;;;;43.75;40.50;;;;;3.37;78.32;102044.09;5101778;27;45416;-77
2023/03/01 08:54:50;;;;;;;;;38.25;34.50;;;;;3.49;76.83;102054.78;5102239;27;45235;-76
2023/03/01 08:57:15;;;;;;;;;49.25;43.75;;;;;3.43;78.29;102036.75;5101108;27;45228;-76
2023/03/01 08:59:41;;;;;;;;;50.75;41.50;;;;;3.43;77.97;102027.09;5097670;27;60478;-76
2023/03/01 09:02:12;;;;;;;;;46.25;39.00;;;;;3.53;78.17;102048.38;5101980;27;45198;-77
2023/03/01 09:04:38;;;;;;;;;48.25;44.25;;;;;3.51;77.36;102034.50;5101807;27;46321;-76
2023/03/01 09:07:04;;;;;;;;;47.25;39.75;;;;;3.54;77.07;102035.13;5101774;27;45466;-78
2023/03/01 09:09:29;;;;;;;;;49.00;42.50;;;;;3.56;77.59;102034.22;5102072;27;45521;-76
2023/03/01 09:11:55;;;;;;;;;59.50;49.25;;;;;3.62;76.81;102032.03;5101878;27;46128;-78
2023/03/01 09:14:20;;;;;;;;;56.00;46.00;;;;;3.56;77.51;102010.56;5099775;27;45168;-77
2023/03/01 09:16:46;;;;;;;;;67.75;55.00;;;;;3.73;77.46;102018.22;5100805;27;45302;-76
2023/03/01 09:19:12;;;;;;;;;71.00;54.00;;;;;3.79;77.72;102020.47;5100260;27;47374;-77
2023/03/01 09:21:37;;;;;;;;;45.25;40.50;;;;;3.83;77.08;102022.91;5102663;27;45340;-77
2023/03/01 09:24:03;;;;;;;;;50.00;40.50;;;;;3.86;76.51;102020.06;5103293;27;45221;-77
2023/03/01 09:26:28;;;;;;;;;63.25;51.25;;;;;3.79;76.53;102007.31;5103548;27;45384;-77
2023/03/01 09:28:55;;;;;;;;;46.25;40.00;;;;;3.90;76.22;102014.47;5102401;27;45625;-77
2023/03/01 09:31:22;;;;;;;;;55.50;46.75;;;;;3.90;76.69;102003.97;5102254;27;45405;-76
2023/03/01 09:33:50;;;;;;;;;46.00;40.50;;;;;4.01;76.85;102005.91;5100459;27;45281;-77
2023/03/01 09:36:18;;;;;;;;;73.00;58.50;;;;;4.10;76.88;101998.38;5102484;27;45166;-76
2023/03/01 09:38:44;;;;;;;;;50.00;43.25;;;;;4.18;76.39;101990.81;5102354;27;45471;-77
2023/03/01 09:41:42;;;;;;;;;50.75;41.50;;;;;4.32;76.74;102003.06;5100898;27;47262;-76
2023/03/01 09:44:20;;;;;;;;;50.75;43.50;;;;;4.40;76.14;101990.22;5095428;27;45333;-77
2023/03/01 09:46:46;;;;;;;;;47.00;41.25;;;;;4.46;76.06;101983.69;5100580;27;45329;-76
2023/03/01 09:49:18;;;;;;;;;50.00;41.00;;;;;4.55;75.83;101980.44;5102288;27;45481;-77
2023/03/01 09:51:55;;;;;;;;;46.50;40.75;;;;;4.61;74.88;101984.44;5096842;27;47501;-77
2023/03/01 09:54:21;;;;;;;;;52.00;43.25;;;;;4.61;74.48;101978.38;5098090;27;45427;-77
2023/03/01 09:57:05;;;;;;;;;54.25;43.50;;;;;4.71;74.58;101987.31;5102779;27;45241;-76
2023/03/01 09:59:54;;;;;;;;;50.00;41.75;;;;;4.75;74.13;101977.41;5101871;27;45350;-76
2023/03/01 10:02:26;;;;;;;;;62.50;50.50;;;;;4.86;74.08;101974.03;5101435;27;45598;-76
2023/03/01 10:04:59;;;;;;;;;69.75;55.00;;;;;4.99;75.18;101963.47;5100905;27;45226;-77
2023/03/01 10:08:02;;;;;;;;;54.00;43.00;;;;;5.21;74.29;101975.16;5100820;27;45467;-76
2023/03/01 10:10:34;;;;;;;;;56.25;44.00;;;;;5.27;73.53;101958.91;5100632;27;45669;-76
2023/03/01 10:13:14;;;;;;;;;57.50;45.75;;;;;5.42;73.85;101956.97;5098214;27;46218;-76
2023/03/01 10:16:03;;;;;;;;;55.00;44.50;;;;;5.53;72.90;101957.03;5094940;27;45430;-77
2023/03/01 10:18:32;;;;;;;;;52.25;43.25;;;;;5.69;71.63;101953.31;5099288;27;45357;-76
2023/03/01 10:21:04;;;;;;;;;74.75;58.75;;;;;5.77;71.17;101950.06;5110582;27;45340;-76
2023/03/01 10:23:34;;;;;;;;;59.00;48.75;;;;;5.84;70.26;101956.63;5100110;27;45483;-76
2023/03/01 10:26:12;;;;;;;;;43.00;39.00;;;;;5.88;70.05;101959.84;5098842;27;46052;-76
2023/03/01 10:29:02;;;;;;;;;50.25;41.75;;;;;5.94;68.92;101959.41;5096149;27;45462;-77
2023/03/01 10:31:42;;;;;;;;;56.50;45.75;;;;;5.96;69.44;101951.38;5098621;27;46946;-77
2023/03/01 10:34:17;;;;;;;;;55.50;42.00;;;;;6.07;69.33;101954.06;5100225;27;45480;-77
2023/03/01 10:36:47;;;;;;;;;49.50;42.25;;;;;6.10;69.05;101938.00;5098184;27;45351;-76
2023/03/01 10:39:21;;;;;;;;;51.75;44.50;;;;;6.14;68.21;101936.81;5096308;27;45291;-77
2023/03/01 10:41:59;;;;;;;;;50.50;42.25;;;;;6.22;67.68;101946.81;5100679;27;45379;-77
2023/03/01 10:44:43;;;;;;;;;54.25;42.00;;;;;6.21;67.55;101933.72;5098120;27;46741;-79
2023/03/01 10:47:27;;;;;;;;;47.00;40.50;;;;;6.23;66.91;101937.94;5113743;27;45295;-78
2023/03/01 10:49:58;;;;;;;;;48.50;41.50;;;;;6.28;67.21;101951.63;5084988;27;45457;-77
2023/03/01 10:52:37;;;;;;;;;76.00;59.00;;;;;6.27;66.88;101942.03;5090463;27;45381;-76
2023/03/01 10:55:31;;;;;;;;;56.00;45.75;;;;;6.23;66.29;101926.53;5099844;27;45818;-77
2023/03/01 10:58:21;;;;;;;;;59.50;49.50;;;;;6.27;66.62;101935.91;5098680;27;46061;-76
2023/03/01 11:00:52;;;;;;;;;55.25;44.00;;;;;6.19;66.33;101926.78;5100126;27;45247;-77
2023/03/01 11:03:38;;;;;;;;;49.25;42.00;;;;;6.27;66.06;101942.03;5099935;27;45317;-76
2023/03/01 11:06:13;;;;;;;;;52.50;43.75;;;;;6.26;66.51;101937.69;5099591;27;45289;-76
2023/03/01 11:08:41;;;;;;;;;45.75;38.25;;;;;6.30;66.18;101928.59;5099035;27;45366;-76
2023/03/01 11:11:09;;;;;;;;;55.00;45.00;;;;;6.30;66.51;101925.13;5098814;27;45369;-76
2023/03/01 11:13:35;;;;;;;;;66.00;52.50;;;;;6.24;65.91;101915.88;5099765;27;45601;-77
2023/03/01 11:16:02;;;;;;;;;45.00;39.00;;;;;6.28;65.75;101927.88;5098537;27;48099;-76
2023/03/01 11:18:30;;;;;;;;;56.25;46.75;;;;;6.20;65.11;101917.06;5099846;27;45320;-77
2023/03/01 11:20:58;;;;;;;;;48.75;41.50;;;;;6.26;65.74;101918.38;5098172;27;45289;-76